Time;durP1;ratioP1;P1;durP2;ratioP2;P2;SDS_P1;SDS_P2;PMS_P1;PMS_P2;Temp;Humidity;BMP_temperature;BMP_pressure;BME280_temperature;BME280_humidity;BME280_pressure;Samples;Min_cycle;Max_cycle;Signal;HPM_P1;HPM_P2
2023/08/15 00:00:22;;;;;;;2.42;1.90;;;;;;;29.56;36.61;96688.28;5017058;28;20026;-28
2023/08/15 00:02:48;;;;;;;2.38;1.80;;;;;;;29.56;36.84;96693.13;5024500;28;20025;-29
2023/08/15 00:05:13;;;;;;;2.05;1.67;;;;;;;29.52;36.72;96687.16;5023593;28;20018;-29
2023/08/15 00:07:39;;;;;;;2.53;1.50;;;;;;;29.53;36.70;96689.41;5016254;28;20026;-29
2023/08/15 00:10:04;;;;;;;3.90;1.52;;;;;;;29.62;36.27;96694.50;5019974;28;20013;-30
2023/08/15 00:12:30;;;;;;;3.33;1.67;;;;;;;29.70;35.96;96685.41;5021860;28;20370;-29
2023/08/15 00:14:56;;;;;;;2.05;1.70;;;;;;;29.57;35.96;96695.38;5024553;28;20029;-29
2023/08/15 00:17:22;;;;;;;3.28;1.98;;;;;;;29.62;35.56;96688.16;5024545;28;20028;-29
2023/08/15 00:19:47;;;;;;;2.67;1.63;;;;;;;29.51;35.29;96696.81;5023219;28;20026;-29
2023/08/15 00:22:13;;;;;;;3.08;2.00;;;;;;;29.41;35.21;96695.81;5024333;28;20013;-28
2023/08/15 00:24:38;;;;;;;3.22;1.63;;;;;;;29.34;35.17;96688.09;5023366;28;20030;-29
2023/08/15 00:27:04;;;;;;;3.33;1.67;;;;;;;29.43;34.98;96691.16;5024249;28;20024;-29
2023/08/15 00:29:29;;;;;;;1.75;1.50;;;;;;;29.30;35.01;96694.75;5026040;28;20029;-28
2023/08/15 00:31:55;;;;;;;2.22;1.80;;;;;;;29.29;35.06;96686.94;5021701;28;20033;-29
2023/08/15 00:34:20;;;;;;;4.97;1.80;;;;;;;29.12;35.00;96687.34;5024064;28;20082;-30
2023/08/15 00:36:46;;;;;;;2.67;1.55;;;;;;;29.29;34.51;96690.50;5017321;28;20032;-29
2023/08/15 00:39:11;;;;;;;2.40;1.70;;;;;;;29.43;34.11;96696.75;5028834;28;20052;-31
2023/08/15 00:41:37;;;;;;;3.40;1.90;;;;;;;29.35;34.00;96687.53;5012527;28;20025;-29
2023/08/15 00:44:02;;;;;;;1.90;1.45;;;;;;;29.57;33.76;96691.81;5014111;28;20026;-29
2023/08/15 00:46:30;;;;;;;2.92;1.48;;;;;;;29.53;33.30;96689.41;5020309;28;20502;-28
2023/08/15 00:48:56;;;;;;;2.95;1.67;;;;;;;29.60;32.94;96697.09;5020573;28;20042;-29
2023/08/15 00:51:23;;;;;;;2.33;1.90;;;;;;;29.51;33.57;96685.66;5023121;28;20099;-29
2023/08/15 00:53:49;;;;;;;3.90;1.70;;;;;;;29.54;33.62;96685.31;5024298;28;20029;-28
2023/08/15 00:56:15;;;;;;;2.72;1.90;;;;;;;29.42;33.99;96686.16;5022933;28;20076;-29
2023/08/15 00:58:42;;;;;;;2.28;1.77;;;;;;;29.43;33.84;96680.00;5019553;28;20385;-29
2023/08/15 01:01:11;;;;;;;1.65;1.40;;;;;;;29.34;33.90;96683.25;5019905;28;20029;-29
2023/08/15 01:03:38;;;;;;;2.85;1.58;;;;;;;29.38;33.78;96680.91;5016266;28;20045;-29
2023/08/15 01:06:04;;;;;;;3.42;1.60;;;;;;;29.35;34.17;96684.75;5018544;28;20029;-29
2023/08/15 01:08:31;;;;;;;4.40;1.73;;;;;;;29.25;34.42;96680.94;5020512;28;20026;-29
2023/08/15 01:10:56;;;;;;;2.65;1.70;;;;;;;29.37;34.48;96682.16;5020469;28;20037;-29
2023/08/15 01:13:24;;;;;;;2.97;1.52;;;;;;;29.40;34.22;96685.94;5020322;28;20013;-30
2023/08/15 01:15:51;;;;;;;2.22;1.52;;;;;;;29.31;34.23;96678.75;5021151;28;20018;-29
2023/08/15 01:18:22;;;;;;;3.63;1.70;;;;;;;29.36;34.14;96680.66;5025255;28;20014;-29
2023/08/15 01:20:50;;;;;;;1.95;1.52;;;;;;;29.37;34.37;96676.56;5021543;28;20085;-28
2023/08/15 01:23:20;;;;;;;2.10;1.48;;;;;;;29.31;34.17;96678.75;5018716;28;20025;-30
2023/08/15 01:25:49;;;;;;;4.03;1.58;;;;;;;29.22;34.59;96676.44;5022350;28;20385;-29
2023/08/15 01:28:15;;;;;;;3.55;1.60;;;;;;;29.16;34.74;96673.06;5024478;28;20017;-28
2023/08/15 01:30:46;;;;;;;1.98;1.33;;;;;;;29.27;34.76;96673.53;5023709;28;20385;-29
2023/08/15 01:33:22;;;;;;;3.40;1.50;;;;;;;29.07;34.88;96679.09;5013309;28;20026;-30
2023/08/15 01:35:55;;;;;;;2.50;1.50;;;;;;;29.17;35.02;96669.72;5020510;28;20041;-29
2023/08/15 01:38:27;;;;;;;2.25;1.83;;;;;;;29.25;35.32;96676.13;5021107;28;20120;-29
2023/08/15 01:40:55;;;;;;;2.13;1.67;;;;;;;28.95;36.13;96671.00;5020181;28;20079;-30
2023/08/15 01:43:22;;;;;;;2.15;1.88;;;;;;;28.97;36.48;96669.69;5020270;28;20076;-29
2023/08/15 01:45:48;;;;;;;3.13;1.92;;;;;;;29.12;36.39;96664.25;5019242;28;20030;-29
2023/08/15 01:48:15;;;;;;;4.05;1.45;;;;;;;29.12;36.71;96662.22;5020683;28;20022;-29
2023/08/15 01:50:40;;;;;;;4.72;1.88;;;;;;;29.02;36.84;96654.88;5020386;28;20053;-28
2023/08/15 01:53:06;;;;;;;2.75;1.88;;;;;;;29.09;36.86;96657.72;5020594;28;20025;-29
2023/08/15 01:55:31;;;;;;;2.35;1.38;;;;;;;29.20;36.70;96651.84;5022746;28;20013;-29
2023/08/15 01:57:57;;;;;;;4.05;1.83;;;;;;;29.07;37.23;96654.72;5023483;28;20071;-29
2023/08/15 02:00:22;;;;;;;2.40;1.80;;;;;;;29.17;37.17;96652.22;5014716;28;20036;-30
2023/08/15 02:02:49;;;;;;;5.30;1.98;;;;;;;29.13;37.01;96654.59;5023753;28;20049;-29
2023/08/15 02:05:14;;;;;;;2.97;1.90;;;;;;;29.14;37.29;96653.31;5016457;28;20041;-29
2023/08/15 02:07:40;;;;;;;2.78;1.85;;;;;;;29.11;37.33;96652.34;5022022;28;20116;-30
2023/08/15 02:10:05;;;;;;;4.03;1.85;;;;;;;29.19;36.95;96644.75;5023430;28;20024;-29
2023/08/15 02:12:31;;;;;;;2.78;1.98;;;;;;;29.04;37.41;96646.69;5014691;28;20466;-29
2023/08/15 02:14:56;;;;;;;2.95;1.90;;;;;;;29.08;37.32;96647.09;5015784;28;20529;-29
2023/08/15 02:17:22;;;;;;;3.45;2.00;;;;;;;29.15;37.10;96649.22;5023348;28;20488;-29
2023/08/15 02:19:47;;;;;;;2.65;1.88;;;;;;;29.08;37.61;96652.69;5024034;28;20033;-29
2023/08/15 02:22:13;;;;;;;3.17;2.00;;;;;;;29.07;37.49;96645.59;5023674;28;20018;-29
2023/08/15 02:24:38;;;;;;;3.92;1.95;;;;;;;29.04;37.95;96641.13;5023557;28;20091;-30
2023/08/15 02:27:04;;;;;;;2.83;1.92;;;;;;;29.12;37.71;96641.91;5023303;28;20017;-29
2023/08/15 02:29:29;;;;;;;2.17;1.80;;;;;;;29.20;37.21;96645.50;5015260;28;20018;-30
2023/08/15 02:31:54;;;;;;;3.03;2.05;;;;;;;29.05;37.07;96634.25;5030863;28;20045;-30
2023/08/15 02:34:20;;;;;;;2.88;1.88;;;;;;;29.15;36.77;96643.63;5020162;28;20028;-29
2023/08/15 02:36:48;;;;;;;2.47;1.98;;;;;;;29.17;36.52;96641.03;5019232;28;20021;-30
2023/08/15 02:39:16;;;;;;;3.17;1.60;;;;;;;29.07;36.55;96637.97;5019115;28;20470;-30
2023/08/15 02:41:42;;;;;;;3.13;1.70;;;;;;;29.13;35.92;96632.25;5021113;28;20026;-29
2023/08/15 02:44:07;;;;;;;2.40;1.77;;;;;;;29.18;35.99;96637.69;5030756;28;20124;-29
2023/08/15 02:46:33;;;;;;;3.65;1.60;;;;;;;29.07;35.85;96637.97;5022845;28;20026;-29
2023/08/15 02:48:58;;;;;;;3.40;1.80;;;;;;;29.09;36.20;96640.22;5021171;28;20050;-29
2023/08/15 02:51:24;;;;;;;2.83;1.88;;;;;;;29.03;36.49;96636.81;5025152;28;20088;-29
2023/08/15 02:53:49;;;;;;;3.15;1.83;;;;;;;29.03;36.59;96631.25;5026432;28;20052;-32
2023/08/15 02:56:15;;;;;;;4.03;2.00;;;;;;;29.07;36.55;96626.78;5025491;28;20466;-29
2023/08/15 02:58:41;;;;;;;2.33;1.85;;;;;;;29.11;36.52;96630.00;5016059;28;20466;-29
2023/08/15 03:01:07;;;;;;;5.07;2.20;;;;;;;29.19;36.28;96633.59;5022751;28;20039;-29
2023/08/15 03:03:32;;;;;;;3.88;2.10;;;;;;;29.19;36.41;96630.81;5023111;28;20117;-29
2023/08/15 03:06:02;;;;;;;4.45;2.03;;;;;;;29.11;36.69;96632.78;5020644;28;20029;-29
2023/08/15 03:08:27;;;;;;;5.20;2.60;;;;;;;28.94;36.94;96629.66;5016791;28;20021;-29
2023/08/15 03:10:53;;;;;;;4.40;2.00;;;;;;;28.97;37.03;96631.38;5022560;28;20386;-29
2023/08/15 03:13:19;;;;;;;4.95;1.92;;;;;;;29.09;36.54;96637.41;5022474;28;20033;-29
2023/08/15 03:15:51;;;;;;;3.08;1.75;;;;;;;29.03;36.60;96626.41;5024180;28;20022;-29
2023/08/15 03:18:17;;;;;;;10.48;3.05;;;;;;;29.00;36.77;96627.50;5018913;28;20021;-31
2023/08/15 03:20:43;;;;;;;3.40;1.92;;;;;;;29.10;36.49;96628.50;5022493;28;20030;-30
2023/08/15 03:23:08;;;;;;;3.72;1.85;;;;;;;29.03;36.72;96642.41;5026418;28;20025;-30
2023/08/15 03:25:33;;;;;;;2.15;1.70;;;;;;;28.69;37.27;96623.63;5025146;28;20535;-28
2023/08/15 03:27:59;;;;;;;3.67;1.80;;;;;;;28.79;37.23;96624.72;5022170;28;20080;-29
2023/08/15 03:30:25;;;;;;;6.82;1.95;;;;;;;28.67;37.84;96631.81;5022074;28;20026;-29
2023/08/15 03:32:51;;;;;;;3.13;1.60;;;;;;;28.92;37.35;96630.22;5022249;28;20104;-29
2023/08/15 03:35:16;;;;;;;3.13;1.77;;;;;;;28.97;37.43;96627.81;5025419;28;20488;-29
2023/08/15 03:37:42;;;;;;;3.53;1.90;;;;;;;28.94;37.44;96627.63;5019821;28;20112;-29
2023/08/15 03:40:08;;;;;;;3.55;1.70;;;;;;;28.90;37.01;96626.47;5022279;28;20424;-29
2023/08/15 03:42:34;;;;;;;2.83;1.55;;;;;;;28.95;36.88;96634.69;5019952;28;20025;-29
2023/08/15 03:44:59;;;;;;;4.38;2.15;;;;;;;28.99;36.54;96637.16;5024077;28;20022;-29
2023/08/15 03:47:25;;;;;;;2.55;1.90;;;;;;;28.95;36.45;96631.91;5014918;28;20044;-30
2023/08/15 03:49:50;;;;;;;3.08;1.67;;;;;;;28.64;36.84;96641.28;5021752;28;20138;-29
2023/08/15 03:52:16;;;;;;;3.65;1.60;;;;;;;28.91;36.26;96639.91;5022095;28;20462;-29
2023/08/15 03:54:41;;;;;;;3.42;1.75;;;;;;;29.01;35.87;96636.63;5014950;28;20025;-30
2023/08/15 03:57:07;;;;;;;4.82;2.00;;;;;;;28.99;35.65;96630.81;5028999;28;20465;-29
2023/08/15 03:59:32;;;;;;;2.83;1.80;;;;;;;28.87;36.04;96635.94;5014492;28;20060;-30
2023/08/15 04:01:57;;;;;;;2.60;1.60;;;;;;;28.93;36.05;96640.06;5020024;28;20029;-29
2023/08/15 04:04:23;;;;;;;1.70;1.60;;;;;;;29.16;35.78;96639.53;5016732;28;20045;-29
2023/08/15 04:06:48;;;;;;;5.25;1.65;;;;;;;29.06;35.78;96635.72;5021887;28;20053;-30
2023/08/15 04:09:14;;;;;;;4.05;1.80;;;;;;;29.00;36.09;96637.91;5021566;28;20025;-29
2023/08/15 04:11:39;;;;;;;3.47;1.67;;;;;;;28.78;36.51;96631.59;5022691;28;20033;-29
2023/08/15 04:14:05;;;;;;;3.67;1.80;;;;;;;28.97;36.42;96636.19;5020089;28;20026;-29
2023/08/15 04:16:30;;;;;;;3.45;2.20;;;;;;;28.83;36.41;96636.25;5021452;28;20014;-28
2023/08/15 04:18:55;;;;;;;3.15;1.90;;;;;;;28.78;36.52;96634.38;5017071;28;20017;-30
2023/08/15 04:21:21;;;;;;;3.75;1.80;;;;;;;28.71;36.46;96634.25;5024811;28;20025;-30
2023/08/15 04:23:46;;;;;;;5.38;2.10;;;;;;;28.85;36.07;96636.47;5015806;28;20026;-29
2023/08/15 04:26:13;;;;;;;3.42;1.80;;;;;;;28.76;35.88;96636.94;5024298;28;20045;-29
2023/08/15 04:28:38;;;;;;;4.10;2.05;;;;;;;28.69;36.45;96634.03;5016715;28;20033;-29
2023/08/15 04:31:04;;;;;;;3.60;1.88;;;;;;;28.79;37.08;96637.91;5023320;28;20017;-29
2023/08/15 04:33:29;;;;;;;3.00;2.15;;;;;;;28.61;38.57;96633.97;5019390;28;20018;-30
2023/08/15 04:35:54;;;;;;;3.92;2.30;;;;;;;28.78;38.48;96639.97;5019755;28;20021;-29
2023/08/15 04:38:20;;;;;;;3.17;2.10;;;;;;;28.55;38.87;96636.91;5020937;28;20089;-29
2023/08/15 04:40:46;;;;;;;5.18;2.13;;;;;;;28.69;38.69;96637.59;5021238;28;20037;-29
2023/08/15 04:43:11;;;;;;;3.75;1.75;;;;;;;28.63;38.78;96644.59;5020777;28;20548;-30
2023/08/15 04:45:40;;;;;;;2.88;2.33;;;;;;;28.65;39.08;96639.22;5012382;28;20382;-29
2023/08/15 04:48:07;;;;;;;3.08;2.42;;;;;;;28.62;39.19;96641.06;5021446;28;20021;-29
2023/08/15 04:50:32;;;;;;;4.25;2.20;;;;;;;28.56;39.29;96640.44;5024217;28;20968;-30
2023/08/15 04:52:58;;;;;;;4.28;2.30;;;;;;;28.63;39.24;96639.78;5023769;28;20121;-29
2023/08/15 04:55:23;;;;;;;6.72;2.22;;;;;;;28.65;39.61;96648.34;5015448;28;20034;-29
2023/08/15 04:57:49;;;;;;;4.88;2.28;;;;;;;28.84;39.37;96643.34;5026434;28;20018;-29
2023/08/15 05:00:17;;;;;;;4.68;2.35;;;;;;;28.62;39.77;96648.69;5021138;28;20104;-29
2023/08/15 05:02:43;;;;;;;4.47;2.17;;;;;;;28.63;39.81;96650.19;5014211;28;20030;-30
2023/08/15 05:05:09;;;;;;;3.55;2.20;;;;;;;28.52;40.21;96657.53;5013778;28;20429;-29
2023/08/15 05:07:35;;;;;;;2.42;1.98;;;;;;;28.49;40.52;96649.47;5021770;28;20079;-30
2023/08/15 05:10:01;;;;;;;4.00;2.20;;;;;;;28.62;40.49;96655.00;5023678;28;20048;-30
2023/08/15 05:12:26;;;;;;;3.75;2.10;;;;;;;28.66;40.73;96652.66;5022805;28;20068;-29
2023/08/15 05:14:52;;;;;;;3.95;2.17;;;;;;;28.64;40.94;96652.44;5021034;28;20021;-29
2023/08/15 05:17:17;;;;;;;3.25;2.10;;;;;;;28.75;40.89;96646.59;5019862;28;20531;-29
2023/08/15 05:19:43;;;;;;;4.00;2.08;;;;;;;28.58;41.22;96654.59;5015912;28;20037;-29
2023/08/15 05:22:08;;;;;;;2.13;1.92;;;;;;;28.63;41.44;96659.31;5023477;28;20037;-29
2023/08/15 05:24:34;;;;;;;2.00;1.80;;;;;;;28.67;41.17;96653.41;5023581;28;20038;-28
2023/08/15 05:26:59;;;;;;;3.00;2.22;;;;;;;28.63;41.54;96656.50;5022248;28;20028;-29
2023/08/15 05:29:25;;;;;;;6.38;2.70;;;;;;;28.52;42.05;96657.53;5025612;28;20022;-29
2023/08/15 05:31:51;;;;;;;3.75;2.60;;;;;;;28.52;41.99;96653.97;5012384;28;20084;-29
2023/08/15 05:34:17;;;;;;;4.13;2.50;;;;;;;28.42;42.93;96650.16;5020448;28;20474;-29
2023/08/15 05:36:42;;;;;;;2.70;2.05;;;;;;;28.54;42.27;96654.94;5020973;28;20064;-29
2023/08/15 05:39:08;;;;;;;4.72;2.42;;;;;;;28.58;42.49;96657.38;5026227;28;20318;-31
2023/08/15 05:41:33;;;;;;;5.53;2.30;;;;;;;28.65;42.17;96658.75;5024210;28;20025;-30
2023/08/15 05:43:59;;;;;;;2.70;2.30;;;;;;;28.54;42.20;96654.94;5015048;28;20096;-29
2023/08/15 05:46:24;;;;;;;4.18;2.40;;;;;;;28.78;42.11;96650.34;5020611;28;20028;-29
2023/08/15 05:48:50;;;;;;;3.50;2.72;;;;;;;28.64;42.18;96655.22;5022589;28;20128;-29
2023/08/15 05:51:15;;;;;;;5.72;2.25;;;;;;;28.60;42.44;96657.59;5022783;28;20037;-29
2023/08/15 05:53:40;;;;;;;2.67;2.00;;;;;;;28.57;42.22;96653.84;5028413;28;20034;-29
2023/08/15 05:56:06;;;;;;;2.67;1.98;;;;;;;28.66;42.25;96654.69;5019553;28;20101;-29
2023/08/15 05:58:31;;;;;;;3.35;2.25;;;;;;;28.73;42.21;96654.75;5024528;28;20005;-29
2023/08/15 06:00:57;;;;;;;3.53;2.08;;;;;;;28.80;42.20;96656.16;5022466;28;20021;-30
2023/08/15 06:03:22;;;;;;;3.35;1.80;;;;;;;28.91;41.84;96656.66;5026506;28;20367;-30
2023/08/15 06:05:48;;;;;;;3.25;1.90;;;;;;;28.96;41.73;96660.56;5031091;28;20057;-30
2023/08/15 06:08:13;;;;;;;3.45;2.00;;;;;;;28.92;42.00;96660.19;5023804;28;20046;-29
2023/08/15 06:10:39;;;;;;;2.00;1.77;;;;;;;28.93;41.95;96656.09;5023779;28;20068;-29
2023/08/15 06:13:05;;;;;;;2.88;2.10;;;;;;;28.99;41.98;96664.31;5015695;28;20018;-29
2023/08/15 06:15:31;;;;;;;5.18;2.38;;;;;;;28.91;42.72;96659.44;5022201;28;20014;-30
2023/08/15 06:17:57;;;;;;;5.55;2.35;;;;;;;28.84;42.73;96659.34;5024048;28;20018;-28
2023/08/15 06:20:22;;;;;;;2.70;2.20;;;;;;;28.86;42.68;96656.75;5023365;28;20013;-28
2023/08/15 06:22:48;;;;;;;4.07;2.10;;;;;;;28.91;42.47;96659.44;5023280;28;20033;-30
2023/08/15 06:25:14;;;;;;;3.90;2.53;;;;;;;29.06;41.55;96663.63;5023913;28;20101;-29
2023/08/15 06:27:39;;;;;;;4.00;2.00;;;;;;;28.93;41.99;96656.09;5023142;28;20347;-29
2023/08/15 06:30:05;;;;;;;4.43;2.00;;;;;;;29.02;41.86;96654.88;5025961;28;20922;-29
2023/08/15 06:32:32;;;;;;;4.55;2.58;;;;;;;29.05;41.69;96662.91;5026805;28;20017;-29
2023/08/15 06:34:59;;;;;;;7.30;2.20;;;;;;;29.01;42.09;96661.75;5024593;28;20029;-29
2023/08/15 06:37:24;;;;;;;3.92;2.40;;;;;;;28.95;42.31;96659.81;5020432;28;20024;-29
2023/08/15 06:39:50;;;;;;;3.63;2.53;;;;;;;29.02;42.44;96666.03;5026610;28;20025;-28
2023/08/15 06:42:15;;;;;;;4.50;2.13;;;;;;;28.99;42.37;96675.50;5019119;28;20044;-28
2023/08/15 06:44:44;;;;;;;3.88;2.22;;;;;;;29.15;42.17;96666.72;5027865;28;20113;-30
2023/08/15 06:47:10;;;;;;;5.63;2.88;;;;;;;28.99;42.36;96670.66;5030130;28;20535;-29
2023/08/15 06:49:36;;;;;;;8.45;4.07;;;;;;;29.01;42.21;96672.91;5020043;28;20053;-29
2023/08/15 06:52:03;;;;;;;4.07;3.15;;;;;;;28.77;42.26;96671.91;5019079;28;20497;-29
2023/08/15 06:54:28;;;;;;;4.78;2.47;;;;;;;29.13;41.96;96674.13;5019219;28;20385;-29
2023/08/15 06:56:54;;;;;;;4.53;2.80;;;;;;;29.12;41.84;96675.44;5026466;28;20021;-29
2023/08/15 06:59:23;;;;;;;2.80;2.40;;;;;;;29.13;41.53;96674.13;5023611;28;20362;-28
2023/08/15 07:01:50;;;;;;;5.30;2.83;;;;;;;28.98;41.74;96674.75;5022015;28;20058;-28
2023/08/15 07:04:16;;;;;;;4.22;2.17;;;;;;;28.98;41.85;96680.34;5022381;28;20022;-29
2023/08/15 07:06:41;;;;;;;4.70;2.47;;;;;;;28.69;42.05;96675.91;5022720;28;20071;-29
2023/08/15 07:09:06;;;;;;;3.20;2.72;;;;;;;29.12;41.23;96675.44;5021788;28;20014;-29
2023/08/15 07:11:32;;;;;;;2.45;2.05;;;;;;;29.17;41.32;96683.69;5018145;28;20018;-28
2023/08/15 07:13:58;;;;;;;4.30;2.30;;;;;;;29.02;41.21;96685.59;5026364;28;20096;-28
2023/08/15 07:16:23;;;;;;;5.47;2.40;;;;;;;29.18;41.15;96684.41;5025802;28;20016;-29
2023/08/15 07:18:49;;;;;;;3.85;2.35;;;;;;;29.18;40.77;96687.19;5016320;28;20521;-29
2023/08/15 07:21:14;;;;;;;3.78;2.00;;;;;;;29.11;40.94;96682.31;5021040;28;20022;-30
2023/08/15 07:23:40;;;;;;;4.72;2.55;;;;;;;29.15;40.85;96685.53;5030105;28;20058;-29
2023/08/15 07:26:05;;;;;;;2.65;2.20;;;;;;;29.16;40.98;96684.22;5022253;28;20021;-30
2023/08/15 07:28:31;;;;;;;6.13;2.00;;;;;;;29.05;41.13;96685.25;5028566;28;20381;-29
2023/08/15 07:30:56;;;;;;;4.45;2.42;;;;;;;29.01;40.97;96689.66;5022725;28;20045;-29
2023/08/15 07:33:22;;;;;;;4.03;2.50;;;;;;;29.33;40.75;96687.34;5026772;28;20033;-28
2023/08/15 07:35:48;;;;;;;5.05;2.20;;;;;;;29.16;40.87;96690.56;5024673;28;20112;-28
2023/08/15 07:38:14;;;;;;;4.05;2.17;;;;;;;29.17;40.61;96691.31;5017922;28;20100;-30
2023/08/15 07:40:39;;;;;;;5.75;2.28;;;;;;;29.34;40.50;96688.84;5025235;28;20028;-29
2023/08/15 07:43:05;;;;;;;2.95;2.10;;;;;;;29.29;40.11;96692.53;5024218;28;20412;-29
2023/08/15 07:45:30;;;;;;;2.35;2.10;;;;;;;29.29;39.82;96692.53;5025255;28;20021;-28
2023/08/15 07:47:58;;;;;;;3.53;2.10;;;;;;;29.36;39.43;96693.88;5018046;28;20037;-29
2023/08/15 07:50:26;;;;;;;2.58;2.00;;;;;;;29.39;39.47;96693.56;5022189;28;20056;-29
2023/08/15 07:52:52;;;;;;;3.88;2.08;;;;;;;29.46;39.16;96700.50;5020270;28;20029;-29
2023/08/15 07:55:18;;;;;;;3.95;2.33;;;;;;;29.41;39.28;96698.63;5017084;28;20022;-30
2023/08/15 07:57:44;;;;;;;5.63;2.30;;;;;;;29.39;39.62;96690.78;5028115;28;20423;-28
2023/08/15 08:00:11;;;;;;;4.25;2.53;;;;;;;29.18;39.70;96696.34;5014621;28;20121;-28
2023/08/15 08:02:37;;;;;;;3.13;2.25;;;;;;;29.52;39.17;96693.50;5021953;28;20100;-28
2023/08/15 08:05:06;;;;;;;2.45;2.13;;;;;;;29.52;39.18;96690.69;5014998;28;20157;-30
2023/08/15 08:07:32;;;;;;;2.72;2.05;;;;;;;29.58;39.32;96696.13;5028622;28;20025;-30
2023/08/15 08:09:59;;;;;;;4.13;2.08;;;;;;;29.71;38.80;96690.44;5021651;28;20490;-29
2023/08/15 08:12:25;;;;;;;4.28;2.15;;;;;;;29.73;38.49;96695.47;5021302;28;20024;-29
2023/08/15 08:14:50;;;;;;;5.30;2.10;;;;;;;29.79;38.47;96687.72;5016824;28;20033;-28
2023/08/15 08:17:16;;;;;;;2.83;2.30;;;;;;;29.69;38.87;96692.28;5019528;28;20030;-28
2023/08/15 08:19:41;;;;;;;4.65;2.60;;;;;;;29.59;39.02;96695.59;5021218;28;20446;-30
2023/08/15 08:22:07;;;;;;;4.68;2.35;;;;;;;29.76;38.62;96694.41;5021255;28;20026;-29
2023/08/15 08:24:32;;;;;;;3.85;2.10;;;;;;;29.55;38.68;96695.16;5021054;28;20116;-29
2023/08/15 08:26:57;;;;;;;3.70;2.20;;;;;;;29.74;38.27;96688.59;5020960;28;20021;-29
2023/08/15 08:29:24;;;;;;;3.03;2.20;;;;;;;29.67;38.62;96692.84;5021291;28;20482;-30
2023/08/15 08:31:49;;;;;;;3.58;2.28;;;;;;;29.63;39.04;96704.38;5012959;28;20037;-30
2023/08/15 08:34:14;;;;;;;3.42;2.25;;;;;;;29.79;38.41;96696.09;5028525;28;20354;-29
2023/08/15 08:36:41;;;;;;;3.35;2.00;;;;;;;29.78;38.26;96692.56;5021460;28;20438;-31
2023/08/15 08:39:09;;;;;;;2.75;2.30;;;;;;;30.03;38.27;96700.56;5028230;28;20090;-30
2023/08/15 08:41:38;;;;;;;6.07;2.53;;;;;;;29.73;38.87;96696.22;5014106;28;20105;-29
2023/08/15 08:44:05;;;;;;;8.70;2.50;;;;;;;29.78;38.79;96706.53;5021824;28;20026;-29
2023/08/15 08:46:31;;;;;;;4.60;2.10;;;;;;;29.70;38.55;96691.00;5020229;28;20025;-29
2023/08/15 08:48:58;;;;;;;3.38;2.35;;;;;;;29.81;38.71;96702.63;5026756;28;20478;-29
2023/08/15 08:51:25;;;;;;;2.90;2.35;;;;;;;29.91;38.73;96697.28;5023029;28;20584;-29
2023/08/15 08:53:51;;;;;;;4.03;2.45;;;;;;;29.89;38.58;96705.47;5018802;28;20049;-30
2023/08/15 08:56:18;;;;;;;2.85;2.10;;;;;;;29.87;39.00;96699.69;5020712;28;20017;-28
2023/08/15 08:58:48;;;;;;;6.30;2.50;;;;;;;29.84;39.16;96703.56;5024680;28;20099;-29
2023/08/15 09:01:15;;;;;;;9.52;2.40;;;;;;;29.85;39.15;96708.63;5023521;28;20037;-30
2023/08/15 09:03:40;;;;;;;5.80;2.40;;;;;;;29.82;39.12;96709.72;5020843;28;20022;-29
2023/08/15 09:06:06;;;;;;;4.20;2.58;;;;;;;29.87;38.77;96705.28;5019096;28;20034;-29
2023/08/15 09:08:32;;;;;;;5.80;3.22;;;;;;;29.99;38.83;96712.84;5022123;28;20037;-29
2023/08/15 09:10:58;;;;;;;4.18;2.80;;;;;;;29.98;38.68;96702.19;5012544;28;20025;-29
2023/08/15 09:13:23;;;;;;;3.75;2.70;;;;;;;29.96;39.39;96696.41;5019615;28;20426;-29
2023/08/15 09:15:49;;;;;;;3.60;2.40;;;;;;;29.99;39.00;96714.88;5021263;28;20033;-29
2023/08/15 09:18:15;;;;;;;5.05;2.47;;;;;;;29.97;39.05;96697.91;5012929;28;20075;-29
2023/08/15 09:20:45;;;;;;;4.32;2.85;;;;;;;30.04;38.64;96702.81;5021668;28;20021;-29
2023/08/15 09:23:11;;;;;;;3.75;2.58;;;;;;;30.04;39.06;96690.88;5018944;28;20021;-29
2023/08/15 09:25:37;;;;;;;3.60;2.35;;;;;;;30.07;38.97;96698.13;5020373;28;20097;-29
2023/08/15 09:28:05;;;;;;;4.55;2.00;;;;;;;30.00;39.57;96703.16;5020472;28;20029;-29
2023/08/15 09:30:30;;;;;;;6.18;2.60;;;;;;;29.99;39.67;96698.09;5020583;28;20101;-30
2023/08/15 09:32:56;;;;;;;5.68;2.60;;;;;;;30.12;39.81;96698.00;5020257;28;20076;-29
2023/08/15 09:35:22;;;;;;;3.42;2.70;;;;;;;30.03;39.83;96701.31;5020657;28;20476;-29
2023/08/15 09:37:49;;;;;;;4.60;3.28;;;;;;;30.18;39.99;96701.38;5020726;28;20025;-30
2023/08/15 09:40:17;;;;;;;4.32;3.25;;;;;;;30.09;40.40;96701.88;5015757;28;20056;-31
2023/08/15 09:42:43;;;;;;;5.03;2.95;;;;;;;30.11;40.24;96695.75;5025015;28;20069;-29
2023/08/15 09:45:11;;;;;;;4.78;2.78;;;;;;;30.17;40.00;96699.88;5020799;28;20026;-29
2023/08/15 09:47:38;;;;;;;7.65;3.00;;;;;;;30.18;39.78;96701.38;5026934;28;20386;-30
2023/08/15 09:50:06;;;;;;;6.13;3.03;;;;;;;30.24;39.66;96701.97;5019368;28;20046;-29
2023/08/15 09:52:33;;;;;;;3.55;3.00;;;;;;;30.23;40.00;96691.31;5020809;28;20021;-29
2023/08/15 09:54:59;;;;;;;3.13;2.60;;;;;;;30.21;39.94;96688.31;5011730;28;20116;-29
2023/08/15 09:57:24;;;;;;;5.72;2.45;;;;;;;30.17;39.59;96688.69;5027249;28;20478;-29
2023/08/15 09:59:50;;;;;;;4.97;2.70;;;;;;;30.23;39.54;96688.53;5024969;28;20065;-29
2023/08/15 10:02:22;;;;;;;4.10;2.40;;;;;;;30.24;39.45;96693.56;5015888;28;20377;-29
2023/08/15 10:04:58;;;;;;;;;;;;;;;30.25;38.96;96694.31;5013441;28;20029;-30
2023/08/15 10:07:28;;;;;;;2.97;2.05;;;;;;;30.21;39.49;96691.88;5011831;28;19909;-29
2023/08/15 10:09:54;;;;;;;2.72;2.03;;;;;;;30.37;38.89;96692.69;5018648;28;20374;-29
2023/08/15 10:12:21;;;;;;;3.33;2.40;;;;;;;30.32;38.58;96693.59;5020452;28;20080;-29
2023/08/15 10:14:47;;;;;;;4.80;2.40;;;;;;;30.30;38.55;96685.00;5020225;28;20076;-29
2023/08/15 10:17:13;;;;;;;2.70;2.13;;;;;;;30.32;38.61;96683.16;5018566;28;20021;-28
2023/08/15 10:19:45;;;;;;;2.90;2.60;;;;;;;30.33;38.46;96684.66;5015630;28;20470;-29
2023/08/15 10:22:11;;;;;;;3.92;2.10;;;;;;;30.31;38.93;96681.66;5022893;28;20473;-33
2023/08/15 10:24:36;;;;;;;4.97;2.90;;;;;;;30.34;38.17;96680.56;5022707;28;20037;-32
2023/08/15 10:27:02;;;;;;;7.47;2.30;;;;;;;30.35;38.61;96681.31;5022313;28;20441;-30
2023/08/15 10:29:29;;;;;;;6.15;2.60;;;;;;;30.33;38.16;96678.31;5024680;28;20021;-29
2023/08/15 10:32:03;;;;;;;4.70;2.30;;;;;;;30.39;38.27;96669.75;5020248;28;20101;-30
2023/08/15 10:34:33;;;;;;;5.43;1.98;;;;;;;30.48;38.08;96669.22;5021752;28;20029;-29
2023/08/15 10:37:31;;;;;;;3.72;2.25;;;;;;;30.47;37.21;96670.53;5016840;28;20498;-29
2023/08/15 10:40:11;;;;;;;4.65;2.70;;;;;;;30.47;37.17;96662.13;5025513;28;20068;-30
2023/08/15 10:43:02;;;;;;;4.47;2.47;;;;;;;30.41;37.33;96653.16;5028227;28;20028;-29
2023/08/15 10:45:38;;;;;;;3.38;2.50;;;;;;;30.50;37.26;96658.97;5023378;28;20377;-29
2023/08/15 10:48:04;;;;;;;3.70;2.50;;;;;;;30.50;37.51;96658.97;5023865;28;20033;-29
2023/08/15 10:50:30;;;;;;;6.00;2.22;;;;;;;30.46;37.08;96663.44;5023105;28;20382;-29
2023/08/15 10:53:04;;;;;;;3.03;2.30;;;;;;;30.53;36.39;96657.13;5022564;28;20033;-29
2023/08/15 10:55:33;;;;;;;4.57;2.30;;;;;;;30.51;36.30;96654.88;5016262;28;20103;-29
2023/08/15 10:58:03;;;;;;;2.60;2.35;;;;;;;30.57;36.20;96654.72;5021832;28;20124;-28
2023/08/15 11:00:28;;;;;;;4.90;2.67;;;;;;;30.62;36.26;96653.81;5017718;28;20145;-28
2023/08/15 11:02:54;;;;;;;4.13;2.92;;;;;;;30.50;35.51;96658.22;5026585;28;20104;-30
2023/08/15 11:05:20;;;;;;;4.20;3.17;;;;;;;30.63;35.27;96655.31;5032320;28;20021;-29
2023/08/15 11:07:45;;;;;;;3.67;2.60;;;;;;;30.62;35.22;96653.81;5021415;28;20034;-29
2023/08/15 11:10:14;;;;;;;5.10;2.90;;;;;;;30.55;35.30;96644.06;5015673;28;20053;-29
2023/08/15 11:12:48;;;;;;;3.67;2.75;;;;;;;30.61;34.62;96644.66;5024440;28;20022;-29
2023/08/15 11:15:14;;;;;;;3.10;2.80;;;;;;;30.57;34.75;96646.31;5020506;28;20010;-30
2023/08/15 11:17:40;;;;;;;4.97;2.60;;;;;;;30.55;34.44;96637.72;5022180;28;20029;-29
2023/08/15 11:20:06;;;;;;;2.97;2.28;;;;;;;30.66;34.26;96643.00;5022388;28;20496;-30
2023/08/15 11:22:31;;;;;;;2.60;2.40;;;;;;;30.64;33.58;96635.16;5022082;28;20029;-30
2023/08/15 11:24:57;;;;;;;4.80;2.33;;;;;;;30.67;33.90;96625.63;5022735;28;20025;-29
2023/08/15 11:27:23;;;;;;;3.92;2.25;;;;;;;30.71;32.88;96628.06;5019338;28;20028;-29
2023/08/15 11:29:58;;;;;;;2.33;2.13;;;;;;;30.71;32.78;96614.06;5016552;28;20241;-29